createdAt,value
2017-11-10T00:00:35.963Z,60.30
2017-11-10T00:01:41.133Z,60.30
2017-11-10T00:02:46.479Z,60.30
2017-11-10T00:03:51.759Z,60.40
2017-11-10T00:04:56.905Z,60.40
2017-11-10T00:06:02.105Z,60.50
2017-11-10T00:07:07.353Z,60.40
2017-11-10T00:08:12.673Z,60.30
2017-11-10T00:09:17.800Z,60.30
2017-11-10T00:10:23.080Z,60.30
2017-11-10T00:11:28.089Z,60.20
2017-11-10T00:12:33.368Z,60.30
2017-11-10T00:13:38.683Z,60.30
2017-11-10T00:14:43.800Z,60.30
2017-11-10T00:15:48.691Z,60.20
2017-11-10T00:16:53.914Z,60.20
2017-11-10T00:17:59.090Z,60.30
2017-11-10T00:19:04.336Z,60.30
2017-11-10T00:20:09.968Z,60.30
2017-11-10T00:21:15.122Z,60.30
2017-11-10T00:22:20.361Z,60.20
2017-11-10T00:23:25.592Z,60.30
2017-11-10T00:24:31.726Z,60.20
2017-11-10T00:25:36.879Z,60.30
2017-11-10T00:26:42.215Z,60.30
2017-11-10T00:27:47.472Z,60.30
2017-11-10T00:28:52.743Z,60.90
2017-11-10T00:29:57.883Z,60.20
2017-11-10T00:31:02.969Z,60.20
2017-11-10T00:32:08.222Z,60.30
2017-11-10T00:33:13.035Z,60.30
2017-11-10T00:34:17.960Z,60.30
2017-11-10T00:35:22.528Z,60.20
2017-11-10T00:36:27.100Z,60.20
2017-11-10T00:37:31.818Z,60.30
2017-11-10T00:38:36.559Z,60.20
2017-11-10T00:39:41.327Z,60.20
2017-11-10T00:40:47.190Z,60.20
2017-11-10T00:41:51.833Z,60.40
2017-11-10T00:42:56.612Z,60.30
2017-11-10T00:44:01.211Z,60.30
2017-11-10T00:45:05.797Z,60.30
2017-11-10T00:46:10.647Z,60.30
2017-11-10T00:47:15.239Z,60.30
2017-11-10T00:48:20.041Z,60.40
2017-11-10T00:49:24.984Z,60.30
2017-11-10T00:50:29.914Z,60.30
2017-11-10T00:51:34.512Z,60.30
2017-11-10T00:52:39.309Z,60.30
2017-11-10T00:53:44.204Z,60.30
2017-11-10T00:54:48.892Z,60.30
2017-11-10T00:55:53.548Z,60.40
2017-11-10T00:56:58.377Z,60.40
2017-11-10T00:58:03.131Z,60.40
2017-11-10T00:59:07.860Z,60.40
2017-11-10T01:00:12.517Z,60.40
2017-11-10T01:01:17.232Z,60.40
2017-11-10T01:02:21.979Z,60.40
2017-11-10T01:03:26.569Z,60.40
2017-11-10T01:04:31.258Z,60.40
2017-11-10T01:05:35.990Z,60.40
2017-11-10T01:06:40.707Z,60.30
2017-11-10T01:07:45.604Z,60.40
2017-11-10T01:08:50.465Z,60.40
2017-11-10T01:09:55.078Z,60.40
2017-11-10T01:10:59.784Z,60.40
2017-11-10T01:12:04.500Z,60.40
2017-11-10T01:13:09.333Z,60.30
2017-11-10T01:14:14.030Z,60.40
2017-11-10T01:15:18.944Z,60.40
2017-11-10T01:16:23.856Z,60.40
2017-11-10T01:17:28.719Z,60.50
2017-11-10T01:18:33.449Z,60.30
2017-11-10T01:19:38.077Z,60.40
2017-11-10T01:20:42.729Z,60.40
2017-11-10T01:21:47.609Z,60.30
2017-11-10T01:22:52.198Z,60.40
2017-11-10T01:23:56.963Z,60.40
2017-11-10T01:25:01.716Z,60.30
2017-11-10T01:26:06.481Z,60.30
2017-11-10T01:27:11.183Z,60.40
2017-11-10T01:28:16.090Z,60.40
2017-11-10T01:29:20.781Z,60.30
2017-11-10T01:30:25.486Z,60.40
2017-11-10T01:31:30.188Z,60.30
2017-11-10T01:32:34.828Z,60.40
2017-11-10T01:33:39.410Z,60.40
2017-11-10T01:34:44.189Z,60.40
2017-11-10T01:35:49.045Z,60.30
2017-11-10T01:36:53.802Z,60.30
2017-11-10T01:37:58.420Z,60.40
2017-11-10T01:39:03.159Z,60.40
2017-11-10T01:40:07.813Z,60.40
2017-11-10T01:41:12.513Z,60.40
2017-11-10T01:42:17.103Z,60.40
2017-11-10T01:43:21.853Z,60.30
2017-11-10T01:44:26.719Z,60.30
2017-11-10T01:45:31.452Z,60.40
2017-11-10T01:46:36.271Z,60.40
2017-11-10T01:47:41.155Z,60.30
2017-11-10T01:48:45.907Z,60.40
2017-11-10T01:49:50.546Z,60.40
2017-11-10T01:50:55.351Z,60.40
2017-11-10T01:52:00.052Z,60.40
2017-11-10T01:53:04.960Z,60.30
2017-11-10T01:54:09.730Z,60.30
2017-11-10T01:55:14.496Z,60.40
2017-11-10T01:56:19.556Z,61.00
2017-11-10T01:57:24.276Z,60.40
2017-11-10T01:58:28.859Z,60.40
2017-11-10T01:59:33.647Z,60.30
2017-11-10T02:00:38.435Z,60.40
2017-11-10T02:01:43.182Z,60.40
2017-11-10T02:02:47.748Z,60.30
2017-11-10T02:03:52.494Z,60.40
2017-11-10T02:04:57.276Z,60.40
2017-11-10T02:06:02.206Z,60.30
2017-11-10T02:07:07.584Z,60.30
2017-11-10T02:08:13.326Z,60.30
2017-11-10T02:09:17.887Z,60.40
2017-11-10T02:10:22.642Z,60.30
2017-11-10T02:11:27.533Z,60.40
2017-11-10T02:12:32.285Z,60.40
2017-11-10T02:13:37.226Z,60.40
2017-11-10T02:14:41.986Z,60.30
2017-11-10T02:15:46.656Z,60.30
2017-11-10T02:16:51.296Z,60.30
2017-11-10T02:17:56.022Z,60.30
2017-11-10T02:19:00.776Z,60.30
2017-11-10T02:20:05.347Z,60.30
2017-11-10T02:21:10.093Z,60.30
2017-11-10T02:22:14.778Z,60.30
2017-11-10T02:23:19.499Z,60.30
2017-11-10T02:24:24.205Z,60.30
2017-11-10T02:25:28.951Z,60.30
2017-11-10T02:26:33.859Z,60.30
2017-11-10T02:27:38.573Z,60.30
2017-11-10T02:28:43.164Z,60.30
2017-11-10T02:29:47.892Z,60.30
2017-11-10T02:30:52.605Z,60.40
2017-11-10T02:31:57.298Z,60.30
2017-11-10T02:33:01.911Z,60.30
2017-11-10T02:34:06.798Z,60.30
2017-11-10T02:35:11.663Z,60.30
2017-11-10T02:36:16.274Z,60.40
2017-11-10T02:37:21.021Z,60.40
2017-11-10T02:38:25.758Z,60.40
2017-11-10T02:39:30.487Z,60.30
2017-11-10T02:40:35.466Z,60.30
2017-11-10T02:41:40.163Z,60.30
2017-11-10T02:42:45.056Z,60.30
2017-11-10T02:43:49.953Z,60.30
2017-11-10T02:44:54.859Z,60.30
2017-11-10T02:45:59.583Z,60.30
2017-11-10T02:47:04.420Z,60.30
2017-11-10T02:48:09.018Z,60.30
2017-11-10T02:49:13.578Z,60.30
2017-11-10T02:50:18.342Z,60.30
2017-11-10T02:51:23.124Z,60.30
2017-11-10T02:52:27.894Z,60.30
2017-11-10T02:53:32.685Z,60.30
2017-11-10T02:54:37.480Z,60.30
2017-11-10T02:55:42.328Z,60.30
2017-11-10T02:56:46.900Z,60.30
2017-11-10T02:57:51.648Z,60.30
2017-11-10T02:58:56.212Z,60.30
2017-11-10T03:00:00.829Z,60.30
2017-11-10T03:01:05.640Z,60.30
2017-11-10T03:02:10.372Z,60.30
2017-11-10T03:03:15.088Z,60.30
2017-11-10T03:04:19.948Z,60.30
2017-11-10T03:05:24.666Z,60.30
2017-11-10T03:06:29.356Z,60.30
2017-11-10T03:07:34.040Z,60.30
2017-11-10T03:08:38.694Z,60.30
2017-11-10T03:09:43.538Z,60.40
2017-11-10T03:10:48.114Z,60.30
2017-11-10T03:11:52.682Z,60.30
2017-11-10T03:12:57.602Z,60.30
2017-11-10T03:14:02.396Z,60.30
2017-11-10T03:15:07.311Z,60.30
2017-11-10T03:16:12.004Z,60.30
2017-11-10T03:17:16.754Z,60.30
2017-11-10T03:18:21.708Z,60.30
2017-11-10T03:19:26.280Z,60.30
2017-11-10T03:20:30.984Z,60.30
2017-11-10T03:21:35.789Z,60.30
2017-11-10T03:22:40.369Z,60.30
2017-11-10T03:23:45.082Z,60.30
2017-11-10T03:24:49.697Z,60.30
2017-11-10T03:25:54.441Z,60.40
2017-11-10T03:26:59.115Z,60.40
2017-11-10T03:28:03.691Z,60.30
2017-11-10T03:29:08.387Z,60.30
2017-11-10T03:30:13.307Z,60.40
2017-11-10T03:31:18.064Z,60.40
2017-11-10T03:32:22.935Z,60.30
2017-11-10T03:33:27.732Z,60.30
2017-11-10T03:34:32.474Z,60.40
2017-11-10T03:35:37.318Z,60.40
2017-11-10T03:36:42.046Z,60.40
2017-11-10T03:37:46.800Z,60.20
2017-11-10T03:38:51.402Z,60.40
2017-11-10T03:39:56.241Z,60.40
2017-11-10T03:41:00.935Z,60.30
2017-11-10T03:42:05.687Z,60.30
2017-11-10T03:43:10.625Z,60.30
2017-11-10T03:44:15.356Z,60.30
2017-11-10T03:45:20.048Z,60.30
2017-11-10T03:46:24.780Z,60.20
2017-11-10T03:47:29.584Z,60.20
2017-11-10T03:48:34.299Z,60.30
2017-11-10T03:49:39.095Z,60.20
2017-11-10T03:50:43.795Z,60.20
2017-11-10T03:51:48.607Z,60.40
2017-11-10T03:52:53.522Z,60.30
2017-11-10T03:53:58.197Z,60.20
2017-11-10T03:55:02.973Z,60.30
2017-11-10T03:56:07.757Z,60.30
2017-11-10T03:57:12.391Z,60.30
2017-11-10T03:58:17.078Z,60.30
2017-11-10T03:59:21.666Z,60.30
2017-11-10T04:00:26.267Z,60.30
2017-11-10T04:01:31.063Z,60.30
2017-11-10T04:02:35.628Z,60.20
2017-11-10T04:03:40.385Z,60.30
2017-11-10T04:04:44.959Z,61.00
2017-11-10T04:05:49.687Z,60.30
2017-11-10T04:06:54.540Z,60.20
2017-11-10T04:07:59.112Z,60.30
2017-11-10T04:09:03.702Z,60.20
2017-11-10T04:10:08.449Z,60.20
2017-11-10T04:11:13.318Z,60.20
2017-11-10T04:12:18.278Z,60.40
2017-11-10T04:13:22.838Z,60.20
2017-11-10T04:14:27.582Z,60.20
2017-11-10T04:15:32.383Z,60.30
2017-11-10T04:16:37.164Z,60.30
2017-11-10T04:17:41.906Z,60.20
2017-11-10T04:18:46.494Z,60.20
2017-11-10T04:19:51.228Z,60.30
2017-11-10T04:20:56.114Z,60.20
2017-11-10T04:22:00.689Z,60.30
2017-11-10T04:23:05.550Z,60.20
2017-11-10T04:24:10.134Z,60.30
2017-11-10T04:25:14.842Z,60.20
2017-11-10T04:26:19.473Z,60.20
2017-11-10T04:27:24.162Z,60.30
2017-11-10T04:28:28.978Z,60.20
2017-11-10T04:29:33.988Z,60.30
2017-11-10T04:30:39.197Z,60.20
2017-11-10T04:31:44.405Z,60.20
2017-11-10T04:32:49.733Z,60.30
2017-11-10T04:33:54.903Z,60.30
2017-11-10T04:34:59.948Z,60.20
2017-11-10T04:36:05.097Z,60.20
2017-11-10T04:37:10.056Z,60.10
2017-11-10T04:38:15.116Z,60.20
2017-11-10T04:39:20.024Z,60.20
2017-11-10T04:40:24.933Z,60.20
2017-11-10T04:41:30.049Z,60.10
2017-11-10T04:42:34.979Z,60.20
2017-11-10T04:43:40.127Z,60.20
2017-11-10T04:44:45.188Z,60.20
2017-11-10T04:45:50.723Z,60.20
2017-11-10T04:46:55.916Z,60.10
2017-11-10T04:48:01.096Z,60.20
2017-11-10T04:49:06.591Z,60.10
2017-11-10T04:50:11.748Z,60.10
2017-11-10T04:51:16.881Z,60.10
2017-11-10T04:52:22.053Z,60.10
2017-11-10T04:53:26.961Z,60.10
2017-11-10T04:54:31.912Z,60.10
2017-11-10T04:55:37.171Z,60.10
2017-11-10T04:56:42.284Z,60.10
2017-11-10T04:57:47.426Z,60.10
2017-11-10T04:58:52.639Z,60.10
2017-11-10T04:59:57.658Z,60.10
2017-11-10T05:01:02.808Z,60.10
2017-11-10T05:02:08.041Z,60.10
2017-11-10T05:03:14.433Z,60.20
2017-11-10T05:04:20.576Z,60.10
2017-11-10T05:05:25.834Z,60.20
2017-11-10T05:06:31.737Z,60.40
2017-11-10T05:07:36.887Z,60.50
2017-11-10T05:08:42.179Z,60.50
2017-11-10T05:09:47.724Z,60.50
2017-11-10T05:10:52.845Z,60.50
2017-11-10T05:11:58.090Z,60.50
2017-11-10T05:13:03.618Z,60.50
2017-11-10T05:14:10.054Z,60.60
2017-11-10T05:15:15.190Z,60.60
2017-11-10T05:16:20.244Z,60.50
2017-11-10T05:17:25.236Z,60.40
2017-11-10T05:18:30.481Z,60.30
2017-11-10T05:19:35.820Z,60.40
2017-11-10T05:20:40.754Z,60.40
2017-11-10T05:21:45.997Z,60.30
2017-11-10T05:22:51.769Z,60.20
2017-11-10T05:23:57.536Z,60.20
2017-11-10T05:25:02.720Z,60.10
2017-11-10T05:26:08.071Z,60.00
2017-11-10T05:27:13.136Z,60.00
2017-11-10T05:28:18.172Z,59.90
2017-11-10T05:29:23.339Z,59.90
2017-11-10T05:30:28.610Z,59.90
2017-11-10T05:31:33.668Z,59.70
2017-11-10T05:32:38.521Z,59.70
2017-11-10T05:33:43.552Z,59.60
2017-11-10T05:34:48.713Z,59.60
2017-11-10T05:36:58.951Z,59.10
2017-11-10T05:38:04.110Z,59.70
2017-11-10T05:39:09.163Z,59.50
2017-11-10T05:40:15.266Z,59.40
2017-11-10T05:41:20.359Z,59.30
2017-11-10T05:42:25.475Z,59.40
2017-11-10T05:43:30.562Z,59.20
2017-11-10T05:44:35.690Z,59.20
2017-11-10T05:45:40.782Z,59.10
2017-11-10T05:46:45.776Z,59.10
2017-11-10T05:47:50.810Z,59.70
2017-11-10T05:48:55.634Z,59.70
2017-11-10T05:50:00.743Z,59.00
2017-11-10T05:51:05.907Z,59.00
2017-11-10T05:52:11.138Z,59.00
2017-11-10T05:53:16.338Z,59.10
2017-11-10T05:54:21.432Z,59.10
2017-11-10T05:55:26.834Z,59.00
2017-11-10T05:56:32.130Z,59.10
2017-11-10T05:57:37.334Z,59.10
2017-11-10T05:58:42.687Z,59.10
2017-11-10T05:59:48.009Z,59.10
2017-11-10T06:00:53.258Z,59.10
2017-11-10T06:01:58.574Z,59.20
2017-11-10T06:03:04.215Z,59.40
2017-11-10T06:04:09.816Z,59.50
2017-11-10T06:05:15.313Z,59.70
2017-11-10T06:06:21.419Z,59.70
2017-11-10T06:07:26.458Z,59.90
2017-11-10T06:08:31.783Z,59.90
2017-11-10T06:09:37.303Z,59.90
2017-11-10T06:10:43.159Z,59.80
2017-11-10T06:11:48.266Z,60.00
2017-11-10T06:12:53.500Z,59.90
2017-11-10T06:13:59.769Z,59.80
2017-11-10T06:15:05.470Z,59.80
2017-11-10T06:16:10.957Z,59.90
2017-11-10T06:17:16.054Z,59.90
2017-11-10T06:18:21.380Z,60.00
2017-11-10T06:19:26.656Z,60.00
2017-11-10T06:20:31.936Z,60.10
2017-11-10T06:21:49.597Z,60.10
2017-11-10T06:22:55.744Z,60.10
2017-11-10T06:24:02.670Z,60.20
2017-11-10T06:25:08.356Z,60.30
2017-11-10T06:26:16.643Z,60.30
2017-11-10T06:27:22.990Z,60.40
2017-11-10T06:28:29.859Z,60.60
2017-11-10T06:29:35.222Z,60.60
2017-11-10T06:30:40.850Z,60.70
2017-11-10T06:31:46.135Z,60.80
2017-11-10T06:32:51.609Z,60.70
2017-11-10T06:33:56.678Z,60.80
2017-11-10T06:35:01.901Z,60.90
2017-11-10T06:36:07.376Z,61.00
2017-11-10T06:37:13.049Z,61.20
2017-11-10T06:38:20.535Z,61.00
2017-11-10T06:39:26.026Z,61.20
2017-11-10T06:40:31.459Z,61.20
2017-11-10T06:41:37.687Z,61.20
2017-11-10T06:42:42.870Z,61.30
2017-11-10T06:43:48.877Z,61.40
2017-11-10T06:44:54.225Z,61.40
2017-11-10T06:46:00.240Z,61.40
2017-11-10T06:47:05.731Z,61.40
2017-11-10T06:48:11.326Z,61.40
2017-11-10T06:49:16.992Z,61.50
2017-11-10T06:50:22.670Z,62.00
2017-11-10T06:51:28.482Z,61.80
2017-11-10T06:52:34.208Z,61.70
2017-11-10T06:53:39.828Z,61.70
2017-11-10T06:54:45.156Z,61.60
2017-11-10T06:55:50.874Z,61.60
2017-11-10T06:56:56.041Z,62.30
2017-11-10T06:58:01.588Z,61.60
2017-11-10T06:59:07.417Z,61.80
2017-11-10T07:00:12.686Z,61.70
2017-11-10T07:01:17.888Z,61.10
2017-11-10T07:02:23.520Z,61.10
2017-11-10T07:03:29.154Z,60.90
2017-11-10T07:04:34.465Z,60.50
2017-11-10T07:05:39.735Z,60.50
2017-11-10T07:06:45.464Z,60.50
2017-11-10T07:07:50.551Z,60.30
2017-11-10T07:08:57.111Z,60.20
2017-11-10T07:10:03.316Z,60.10
2017-11-10T07:11:08.513Z,60.00
2017-11-10T07:12:14.033Z,59.90
2017-11-10T07:13:19.024Z,60.00
2017-11-10T07:14:23.834Z,60.10
2017-11-10T07:15:30.130Z,60.10
2017-11-10T07:16:35.388Z,60.10
2017-11-10T07:17:40.548Z,60.10
2017-11-10T07:18:46.170Z,60.20
2017-11-10T07:19:51.309Z,60.40
2017-11-10T07:20:56.910Z,60.50
2017-11-10T07:22:02.244Z,60.50
2017-11-10T07:23:07.270Z,60.50
2017-11-10T07:24:12.529Z,61.00
2017-11-10T07:25:17.886Z,61.30
2017-11-10T07:26:23.233Z,61.70
2017-11-10T07:27:28.549Z,61.90
2017-11-10T07:28:34.034Z,61.40
2017-11-10T07:29:39.562Z,61.20
2017-11-10T07:30:45.844Z,61.20
2017-11-10T07:31:51.172Z,61.20
2017-11-10T07:32:59.454Z,61.20
2017-11-10T07:34:04.999Z,61.20
2017-11-10T07:35:10.452Z,61.20
2017-11-10T07:36:15.501Z,61.20
2017-11-10T07:37:20.445Z,61.20
2017-11-10T07:38:25.582Z,61.20
2017-11-10T07:39:30.824Z,61.20
2017-11-10T07:40:35.626Z,61.10
2017-11-10T07:41:40.568Z,61.20
2017-11-10T07:42:45.696Z,61.20
2017-11-10T07:43:51.048Z,61.30
2017-11-10T07:44:55.897Z,61.40
2017-11-10T07:46:01.102Z,61.30
2017-11-10T07:47:06.756Z,61.30
2017-11-10T07:48:12.326Z,61.30
2017-11-10T07:49:17.861Z,61.50
2017-11-10T07:50:23.194Z,61.40
2017-11-10T07:51:28.706Z,61.40
2017-11-10T07:52:33.511Z,61.60
2017-11-10T07:53:38.441Z,61.60
2017-11-10T07:54:43.807Z,61.60
2017-11-10T07:55:49.057Z,61.70
2017-11-10T07:56:54.369Z,61.90
2017-11-10T07:58:01.248Z,62.40
2017-11-10T07:59:06.817Z,62.50
2017-11-10T08:00:11.735Z,62.60
2017-11-10T08:01:18.190Z,62.60
2017-11-10T08:02:23.632Z,62.60
2017-11-10T08:03:28.809Z,63.20
2017-11-10T08:04:33.908Z,62.60
2017-11-10T08:05:39.330Z,62.60
2017-11-10T08:06:44.553Z,62.70
2017-11-10T08:07:49.748Z,62.70
2017-11-10T08:08:55.142Z,62.70
2017-11-10T08:10:00.172Z,62.60
2017-11-10T08:11:06.006Z,62.60
2017-11-10T08:12:11.171Z,62.60
2017-11-10T08:13:16.364Z,62.70
2017-11-10T08:14:21.578Z,63.00
2017-11-10T08:15:26.778Z,62.80
2017-11-10T08:16:31.803Z,62.70
2017-11-10T08:17:36.738Z,62.70
2017-11-10T08:18:41.794Z,62.80
2017-11-10T08:19:46.931Z,63.00
2017-11-10T08:20:51.849Z,63.00
2017-11-10T08:21:56.737Z,62.90
2017-11-10T08:23:01.749Z,62.90
2017-11-10T08:24:06.499Z,62.90
2017-11-10T08:25:11.409Z,62.90
2017-11-10T08:26:16.537Z,62.90
2017-11-10T08:27:21.200Z,62.90
2017-11-10T08:28:26.155Z,62.90
2017-11-10T08:29:30.900Z,62.90
2017-11-10T08:30:35.869Z,62.80
2017-11-10T08:31:40.760Z,62.80
2017-11-10T08:32:45.603Z,62.90
2017-11-10T08:33:50.568Z,62.70
2017-11-10T08:34:55.701Z,62.70
2017-11-10T08:36:00.786Z,62.60
2017-11-10T08:37:05.660Z,62.60
2017-11-10T08:38:10.564Z,62.60
2017-11-10T08:39:15.422Z,62.60
2017-11-10T08:40:20.320Z,62.60
2017-11-10T08:41:25.231Z,62.60
2017-11-10T08:42:29.990Z,62.50
2017-11-10T08:43:35.039Z,62.50
2017-11-10T08:44:39.921Z,62.40
2017-11-10T08:45:44.954Z,62.40
2017-11-10T08:46:49.725Z,62.40
2017-11-10T08:47:54.841Z,62.50
2017-11-10T08:48:59.702Z,62.30
2017-11-10T08:50:04.693Z,62.40
2017-11-10T08:51:09.615Z,62.40
2017-11-10T08:52:14.761Z,62.20
2017-11-10T08:53:19.633Z,62.40
2017-11-10T08:54:24.508Z,62.40
2017-11-10T08:55:29.437Z,62.30
2017-11-10T08:56:34.183Z,62.20
2017-11-10T08:57:38.970Z,62.30
2017-11-10T08:58:43.849Z,62.30
2017-11-10T08:59:48.845Z,62.20
2017-11-10T09:00:53.762Z,62.10
2017-11-10T09:01:58.456Z,62.20
2017-11-10T09:03:03.234Z,62.20
2017-11-10T09:04:08.597Z,62.10
2017-11-10T09:05:13.854Z,62.10
2017-11-10T09:06:19.076Z,62.10
2017-11-10T09:07:24.417Z,62.10
2017-11-10T09:08:29.421Z,62.00
2017-11-10T09:09:34.655Z,62.00
2017-11-10T09:10:39.898Z,62.00
2017-11-10T09:11:44.819Z,62.00
2017-11-10T09:12:49.784Z,62.10
2017-11-10T09:13:54.662Z,62.00
2017-11-10T09:14:59.607Z,62.00
2017-11-10T09:16:05.152Z,62.00
2017-11-10T09:17:10.092Z,62.00
2017-11-10T09:18:14.963Z,62.00
2017-11-10T09:19:19.933Z,62.00
2017-11-10T09:20:25.830Z,62.00
2017-11-10T09:21:30.790Z,62.00
2017-11-10T09:22:35.794Z,62.00
2017-11-10T09:23:40.844Z,62.00
2017-11-10T09:24:45.770Z,62.00
2017-11-10T09:25:50.551Z,62.00
2017-11-10T09:26:55.635Z,62.00
2017-11-10T09:28:00.405Z,62.00
2017-11-10T09:29:05.596Z,62.00
2017-11-10T09:30:10.348Z,62.00
2017-11-10T09:31:15.238Z,62.00
2017-11-10T09:32:20.098Z,62.00
2017-11-10T09:33:24.829Z,61.90
2017-11-10T09:34:29.678Z,61.90
2017-11-10T09:35:34.683Z,62.00
2017-11-10T09:36:39.531Z,61.90
2017-11-10T09:37:44.378Z,61.90
2017-11-10T09:38:49.282Z,62.00
2017-11-10T09:39:54.256Z,61.90
2017-11-10T09:40:59.078Z,61.90
2017-11-10T09:42:04.366Z,61.90
2017-11-10T09:43:09.260Z,61.90
2017-11-10T09:44:14.106Z,61.90
2017-11-10T09:45:19.047Z,61.90
2017-11-10T09:46:23.994Z,61.90
2017-11-10T09:47:28.718Z,61.90
2017-11-10T09:48:33.402Z,61.90
2017-11-10T09:49:38.406Z,62.50
2017-11-10T09:50:43.432Z,61.90
2017-11-10T09:51:48.147Z,61.80
2017-11-10T09:52:53.352Z,61.80
2017-11-10T09:53:58.138Z,61.70
2017-11-10T09:55:03.128Z,61.70
2017-11-10T09:56:08.093Z,61.80
2017-11-10T09:57:12.924Z,61.70
2017-11-10T09:58:17.821Z,61.80
2017-11-10T09:59:22.702Z,61.80
2017-11-10T10:00:27.441Z,61.70
2017-11-10T10:01:32.441Z,61.80
2017-11-10T10:02:37.491Z,61.70
2017-11-10T10:03:42.497Z,61.70
2017-11-10T10:04:47.374Z,61.80
2017-11-10T10:05:52.502Z,61.70
2017-11-10T10:06:57.981Z,61.60
2017-11-10T10:08:03.192Z,61.60
2017-11-10T10:09:08.314Z,61.70
2017-11-10T10:10:13.401Z,61.60
2017-11-10T10:11:18.563Z,61.60
2017-11-10T10:12:23.410Z,61.60
2017-11-10T10:13:28.647Z,61.60
2017-11-10T10:14:33.834Z,61.60
2017-11-10T10:15:38.885Z,61.60
2017-11-10T10:16:43.998Z,61.60
2017-11-10T10:17:49.073Z,61.60
2017-11-10T10:18:54.106Z,61.50
2017-11-10T10:19:59.082Z,61.50
2017-11-10T10:21:04.452Z,61.50
2017-11-10T10:22:10.047Z,61.50
2017-11-10T10:23:15.054Z,61.50
2017-11-10T10:24:20.125Z,61.50
2017-11-10T10:25:25.605Z,61.50
2017-11-10T10:26:30.686Z,61.50
2017-11-10T10:27:35.803Z,61.50
2017-11-10T10:28:41.003Z,61.50
2017-11-10T10:29:45.919Z,61.50
2017-11-10T10:30:50.964Z,61.50
2017-11-10T10:31:56.113Z,61.40
2017-11-10T10:33:01.255Z,61.50
2017-11-10T10:34:06.549Z,61.50
2017-11-10T10:35:11.655Z,61.50
2017-11-10T10:36:16.694Z,61.50
2017-11-10T10:37:21.611Z,61.40
2017-11-10T10:38:26.543Z,61.50
2017-11-10T10:39:31.629Z,61.40
2017-11-10T10:40:36.673Z,61.40
2017-11-10T10:41:41.762Z,61.40
2017-11-10T10:42:46.803Z,61.40
2017-11-10T10:43:51.969Z,61.50
2017-11-10T10:44:57.505Z,61.40
2017-11-10T10:46:02.793Z,61.40
2017-11-10T10:47:08.159Z,62.10
2017-11-10T10:48:13.087Z,61.40
2017-11-10T10:49:17.852Z,61.40
2017-11-10T10:50:22.855Z,61.40
2017-11-10T10:51:27.593Z,61.40
2017-11-10T10:52:32.490Z,61.50
2017-11-10T10:53:37.484Z,61.40
2017-11-10T10:54:42.557Z,61.50
2017-11-10T10:55:47.640Z,61.50
2017-11-10T10:56:52.555Z,61.50
2017-11-10T10:57:57.561Z,61.50
2017-11-10T10:59:02.571Z,61.40
2017-11-10T11:00:07.598Z,61.50
2017-11-10T11:01:12.830Z,61.40
2017-11-10T11:02:17.603Z,61.50
2017-11-10T11:03:22.841Z,61.50
2017-11-10T11:04:27.732Z,61.50
2017-11-10T11:05:32.836Z,61.40
2017-11-10T11:06:37.711Z,61.50
2017-11-10T11:07:42.800Z,61.50
2017-11-10T11:08:47.916Z,61.50
2017-11-10T11:09:52.659Z,61.50
2017-11-10T11:10:57.428Z,61.50
2017-11-10T11:12:02.215Z,61.50
2017-11-10T11:13:07.031Z,61.50
2017-11-10T11:14:11.980Z,61.50
2017-11-10T11:15:16.842Z,61.50
2017-11-10T11:16:21.735Z,61.50
2017-11-10T11:17:26.744Z,61.50
2017-11-10T11:18:31.689Z,61.40
2017-11-10T11:19:36.611Z,61.50
2017-11-10T11:20:41.663Z,61.50
2017-11-10T11:21:46.469Z,61.40
2017-11-10T11:22:51.435Z,61.50
2017-11-10T11:23:56.236Z,61.50
2017-11-10T11:25:01.172Z,61.50
2017-11-10T11:26:06.076Z,61.50
2017-11-10T11:27:11.107Z,61.40
2017-11-10T11:28:16.035Z,61.40
2017-11-10T11:29:20.700Z,61.50
2017-11-10T11:30:25.816Z,61.40
2017-11-10T11:31:30.892Z,61.40
2017-11-10T11:32:35.823Z,61.40
2017-11-10T11:33:40.745Z,61.40
2017-11-10T11:34:45.757Z,61.40
2017-11-10T11:35:50.883Z,61.40
2017-11-10T11:36:55.927Z,61.40
2017-11-10T11:38:00.826Z,61.40
2017-11-10T11:39:05.570Z,61.40
2017-11-10T11:40:11.027Z,61.40
2017-11-10T11:41:15.844Z,61.40
2017-11-10T11:42:20.643Z,61.40
2017-11-10T11:43:25.714Z,61.40
2017-11-10T11:44:30.690Z,61.40
2017-11-10T11:45:35.592Z,61.40
2017-11-10T11:46:40.528Z,61.40
2017-11-10T11:47:45.302Z,61.50
2017-11-10T11:48:50.362Z,61.30
2017-11-10T11:49:55.440Z,61.40
2017-11-10T11:51:00.475Z,61.40
2017-11-10T11:52:05.684Z,61.40
2017-11-10T11:53:10.643Z,61.40
2017-11-10T11:54:15.384Z,61.40
2017-11-10T11:55:20.270Z,61.40
2017-11-10T11:56:25.276Z,61.40
2017-11-10T11:57:30.047Z,61.40
2017-11-10T11:58:35.035Z,61.30
2017-11-10T11:59:39.966Z,61.40
2017-11-10T12:00:44.964Z,61.40
2017-11-10T12:01:49.841Z,61.40
2017-11-10T12:02:54.927Z,61.40
2017-11-10T12:04:00.084Z,61.40
2017-11-10T12:05:05.360Z,61.40
2017-11-10T12:06:10.247Z,61.40
2017-11-10T12:07:15.811Z,61.30
2017-11-10T12:08:20.699Z,61.30
2017-11-10T12:09:25.454Z,61.40
2017-11-10T12:10:30.393Z,61.40
2017-11-10T12:11:35.349Z,61.40
2017-11-10T12:12:40.153Z,61.40
2017-11-10T12:13:45.031Z,61.40
2017-11-10T12:14:50.803Z,61.40
2017-11-10T12:15:56.308Z,61.40
2017-11-10T12:17:02.066Z,61.40
2017-11-10T12:18:07.119Z,61.30
2017-11-10T12:19:12.026Z,61.40
2017-11-10T12:20:17.339Z,61.30
2017-11-10T12:21:22.589Z,61.50
2017-11-10T12:22:27.765Z,62.00
2017-11-10T12:23:33.376Z,62.10
2017-11-10T12:24:38.928Z,62.00
2017-11-10T12:25:44.548Z,62.10
2017-11-10T12:26:49.888Z,62.00
2017-11-10T12:27:55.509Z,61.90
2017-11-10T12:29:01.369Z,61.90
2017-11-10T12:30:06.768Z,61.90
2017-11-10T12:31:12.862Z,61.80
2017-11-10T12:32:18.424Z,61.80
2017-11-10T12:33:24.747Z,61.90
2017-11-10T12:34:31.082Z,61.90
2017-11-10T12:35:37.819Z,61.90
2017-11-10T12:36:44.156Z,61.80
2017-11-10T12:37:50.564Z,61.80
2017-11-10T12:38:56.742Z,61.80
2017-11-10T12:40:03.390Z,62.10
2017-11-10T12:41:09.302Z,62.60
2017-11-10T12:42:15.871Z,62.40
2017-11-10T12:43:21.091Z,62.20
2017-11-10T12:44:27.587Z,62.30
2017-11-10T12:45:34.313Z,62.20
2017-11-10T12:46:39.689Z,62.30
2017-11-10T12:47:45.718Z,62.40
2017-11-10T12:48:51.890Z,62.40
2017-11-10T12:49:57.381Z,62.40
2017-11-10T12:51:03.138Z,62.40
2017-11-10T12:52:08.303Z,62.40
2017-11-10T12:53:13.508Z,62.40
2017-11-10T12:54:19.006Z,62.30
2017-11-10T12:55:24.562Z,62.30
2017-11-10T12:56:30.484Z,62.40
2017-11-10T12:57:35.749Z,62.30
2017-11-10T12:58:41.787Z,62.40
2017-11-10T12:59:47.184Z,62.30
2017-11-10T13:00:52.455Z,62.30
2017-11-10T13:01:57.613Z,62.20
2017-11-10T13:03:03.130Z,62.30
2017-11-10T13:04:08.411Z,62.50
2017-11-10T13:05:13.562Z,62.40
2017-11-10T13:06:19.394Z,62.40
2017-11-10T13:07:24.624Z,62.40
2017-11-10T13:08:29.862Z,62.20
2017-11-10T13:09:35.264Z,62.10
2017-11-10T13:10:40.354Z,62.10
2017-11-10T13:11:46.475Z,61.90
2017-11-10T13:12:53.466Z,61.80
2017-11-10T13:13:59.047Z,61.80
2017-11-10T13:15:04.247Z,61.60
2017-11-10T13:16:10.330Z,61.40
2017-11-10T13:17:15.534Z,60.90
2017-11-10T13:18:21.141Z,60.60
2017-11-10T13:19:26.317Z,60.60
2017-11-10T13:20:31.609Z,60.60
2017-11-10T13:21:37.034Z,60.60
2017-11-10T13:22:42.350Z,60.80
2017-11-10T13:23:47.900Z,60.80
2017-11-10T13:24:53.400Z,61.00
2017-11-10T13:25:59.094Z,61.00
2017-11-10T13:27:04.374Z,61.00
2017-11-10T13:28:09.951Z,61.10
2017-11-10T13:29:16.356Z,61.10
2017-11-10T13:30:22.007Z,61.10
2017-11-10T13:31:27.897Z,61.20
2017-11-10T13:32:33.262Z,61.10
2017-11-10T13:33:38.666Z,61.10
2017-11-10T13:34:44.078Z,61.10
2017-11-10T13:35:49.708Z,61.10
2017-11-10T13:36:55.070Z,61.20
2017-11-10T13:38:00.670Z,61.20
2017-11-10T13:39:05.819Z,61.30
2017-11-10T13:40:10.852Z,61.30
2017-11-10T13:41:16.092Z,61.40
2017-11-10T13:42:21.406Z,61.50
2017-11-10T13:43:27.377Z,61.50
2017-11-10T13:44:34.122Z,61.50
2017-11-10T13:45:39.454Z,61.40
2017-11-10T13:46:45.174Z,61.40
2017-11-10T13:47:50.568Z,61.30
2017-11-10T13:48:56.246Z,61.30
2017-11-10T13:50:03.638Z,61.30
2017-11-10T13:51:09.365Z,61.20
2017-11-10T13:52:14.845Z,61.10
2017-11-10T13:53:20.579Z,61.20
2017-11-10T13:54:26.124Z,61.20
2017-11-10T13:55:31.323Z,61.10
2017-11-10T13:56:37.023Z,61.10
2017-11-10T13:57:42.432Z,60.90
2017-11-10T13:58:47.449Z,60.70
2017-11-10T13:59:54.263Z,59.60